Terminal Aerodrome Forecast
Issued by NWS

Current Version | Previous Version | Graphics & Text | Print | Product List | Glossary On
Versions: 1 2 3 4 5 6 7 8 9 10 11 12 13 14 15 16 17 18 19 20 21 22 23 24 25 26 27 28 29 30 31 32 33 34 35 36 37 38 39 40 41 42 43
000
FTUS41 KRNK 221136
TAFLWB
TAF
KLWB 221136Z 2212/2312 00000KT P6SM OVC018
     FM221500 32010G18KT P6SM -SHRA SCT012 OVC025
     FM222000 31012KT P6SM SCT025
     FM230200 31005KT P6SM OVC025=

USA.gov is the U.S. government's official web portal to all federal, state and local government web resources and services.